Deepstep, Georgia
Current Conditions -  °F | °C
As of 2:15 PM on Friday 21 Nov 2014 (Local Time) from KOKZ Reporting Station
Clear Clear  
Wind Chill: 66°   Ceiling: Unl
Heat Index: 66°   Visibility: 10mi
Dew Point: 34°   Wind: 7mph
Humidity: 30%   Direction: 360°N
Pressure: 30.36"   Gusts: NA
Location:  33.0015°N, 82.8994°W
Report Text: KOKZ 211915Z AUTO 36006KT 10SM CLR 19/01 A3036 RMK AO2 T01910013
Loading
Personal Weather Stations






























Interactive Weather Map New forecast layout! Learn more

10-Day Weather Forecast

Advertisements
Track Severe Weather on mobile